Norwegian Pearl — C6VG7 — position and weather

sailwx.info

Track history (hours):
 
Tides and Currents Weather Stations Pressure Air Temp Water Temp Dewpoint Dewpoint Depression Visibility Wind Speed Wind Dir Waves Ship Positions

Norwegian Pearl

Last reported at 2017-Jan-19 15:00 UTC. Time now 2017-Jan-19 21:21 UTC.
Position N 24°30' W 081°48'.

Type: Ship. MMSI: 309653000.

Wind from 070 at 2 knots

Barometer 1018.0 mb
Air temperature 23.0 ° C
Visibility: greater than 10.8 NM

Date/timePositionNaut miles runAvg speedWind from/ knotsBaromVisibWave heightAir tempDewpointWater temp
2017-Jan-19 15:00N 24°30' W 081°48'0 0.0 070 / 21018.010.8 23.0
2017-Jan-19 13:00N 24°30' W 081°48'13 4.4 1018.010.8 23.0
2017-Jan-19 10:00N 24°18' W 081°54'1616.2 110 / 101017.8 5.4 23.7 27.0
2017-Jan-19 09:00N 24°06' W 082°06'2020.4 080 / 101017.8 5.4 23.7 27.0
2017-Jan-19 08:00N 23°54' W 082°24'1616.3 090 / 101017.8 5.4 23.7 27.0
2017-Jan-19 07:00N 23°42' W 082°36'1817.5 100 / 101018.2 5.4 24.9 27.0
2017-Jan-19 06:00N 23°36' W 082°54'2020.4 110 / 121018.4 5.4 24.3 27.0
2017-Jan-19 05:00N 23°24' W 083°12'2020.4 100 / 141018.8 5.4 24.5 27.0
2017-Jan-19 04:00N 23°12' W 083°30'1312.6 100 / 171019.1 5.4 25.0 27.0
2017-Jan-19 03:00N 23°06' W 083°42'2020.5 100 / 151019.1 5.4 25.0 27.0
2017-Jan-19 02:00N 22°54' W 084°00'1616.3 070 / 161018.7 5.4 25.0 27.0
2017-Jan-19 01:00N 22°42' W 084°12'2020.5 050 / 161018.7 5.4 25.0 27.0
2017-Jan-19 00:00N 22°30' W 084°30'1616.3 010 / 101017.7 5.4 25.4 28.0
2017-Jan-18 23:00N 22°18' W 084°42'1616.4 350 / 41017.7 5.4 25.4 28.0
2017-Jan-18 22:00N 22°06' W 084°54'1918.8 100 / 81017.7 5.4 25.4 28.0
2017-Jan-18 21:00N 21°48' W 085°00'1918.8 100 / 211017.7 5.4 25.4 28.0
2017-Jan-18 20:00N 21°30' W 084°54'1817.8 070 / 161017.7 5.4 25.4 28.0
2017-Jan-18 19:00N 21°24' W 084°36'2323.1 130 / 131018.5 5.4 27.2 28.0
2017-Jan-18 18:00N 21°18' W 084°12'2120.6 100 / 151019.3 5.4 27.4 28.0
2017-Jan-18 17:00N 21°06' W 083°54'2525.4 100 / 181020.2 5.4 26.4 28.0
2017-Jan-18 16:00N 20°54' W 083°30'1817.9 100 / 181020.5 5.4 27.0 27.0
2017-Jan-18 15:00N 20°48' W 083°12'2120.7 090 / 201020.2 5.4 27.0 27.0
2017-Jan-18 14:00N 20°36' W 082°54'1817.9 080 / 231019.5 5.4 25.0 27.0
2017-Jan-18 13:00N 20°30' W 082°36'2120.7 090 / 231018.8 5.4 25.0 27.0
2017-Jan-18 12:00N 20°18' W 082°18'1817.9 080 / 211018.1 5.4 24.9 28.0
2017-Jan-18 11:00N 20°12' W 082°00'2625.5 090 / 181018.1 5.4 24.9 28.0
2017-Jan-18 10:00N 20°00' W 081°36'1818.0 070 / 181018.1 5.4 24.9 28.0
2017-Jan-18 09:00N 19°54' W 081°18'2625.6 070 / 181018.1 5.4 24.9 28.0
2017-Jan-18 08:00N 19°42' W 080°54'2625.6 050 / 191018.0 5.4 24.9 28.0
2017-Jan-18 07:00N 19°30' W 080°30'2625.6 050 / 151018.2 5.4 25.1 28.0
2017-Jan-18 06:00N 19°18' W 080°06'2322.7 050 / 211018.4 5.4 25.2 28.0
2017-Jan-18 05:00N 19°18' W 079°42'2323.4 080 / 131018.8 5.4 25.5 28.0
2017-Jan-18 04:00N 19°12' W 079°18'2322.7 070 / 151019.5 5.4 25.0 28.0
2017-Jan-18 03:00N 19°12' W 078°54'2120.8 080 / 191019.5 5.4 25.0 28.0
2017-Jan-18 02:00N 19°00' W 078°36'2322.7 080 / 161019.5 5.4 25.0 28.0
2017-Jan-18 01:00N 19°00' W 078°12'2323.5 080 / 161019.0 5.4 25.0 28.0
2017-Jan-18 00:00N 18°54' W 077°48'1716.5 090 / 231019.0 5.4 26.0 27.0
2017-Jan-17 23:00N 18°42' W 077°36'2120.9 080 / 231019.0 5.4 26.0 27.0
2017-Jan-17 22:00N 18°30' W 077°18'13 2.6 080 / 181019.0 5.4 26.0 27.0
2017-Jan-17 17:00N 18°24' W 077°06'0 0.0 090 / 141019.0 5.4 26.0 27.0
2017-Jan-17 15:00N 18°24' W 077°06'0 0.0 120 / 81019.0 5.4 26.0 27.0
2017-Jan-17 14:00N 18°24' W 077°06'18 6.0 080 / 31019.8 5.4 26.0 27.0
2017-Jan-17 11:00N 18°30' W 076°48'1716.5 080 / 201016.8 5.4 26.0 27.0
2017-Jan-17 10:00N 18°42' W 076°36'1818.1 070 / 291016.8 5.4 26.0 27.0
2017-Jan-17 09:00N 18°48' W 076°18'2120.8 070 / 291016.8 5.4 26.0 27.0
2017-Jan-17 08:00N 19°00' W 076°00'2120.8 070 / 291016.8 5.4 26.0 27.0
2017-Jan-17 07:00N 19°12' W 075°42'2323.4 060 / 291017.0 5.4 26.5 27.0
2017-Jan-17 06:00N 19°18' W 075°18'3819.2 060 / 201018.0 5.4 26.5 27.0
2017-Jan-17 04:00N 19°36' W 074°42'2120.8 050 / 321020.0 5.4 25.0 27.0
2017-Jan-17 03:00N 19°48' W 074°24'1818.0 050 / 321020.0 5.4 25.0 27.0
2017-Jan-17 02:00N 19°54' W 074°06'1918.9 040 / 271019.9 5.4 25.0 27.0
2017-Jan-17 01:00N 20°12' W 074°00'1616.5 070 / 381019.4 5.4 25.0 27.0
2017-Jan-17 00:00N 20°24' W 074°12'2120.7 050 / 291018.1 5.4 25.0 28.0
2017-Jan-16 23:00N 20°36' W 074°30'3819.1 060 / 291018.1 5.4 25.0 28.0
2017-Jan-16 21:00N 20°54' W 075°06'1312.7 070 / 291018.1 5.4 25.0 28.0
2017-Jan-16 20:00N 21°00' W 075°18'4321.6 070 / 291018.1 5.4 24.9 28.0
2017-Jan-16 18:00N 21°18' W 076°00'1817.8 080 / 241019.4 5.4 24.8 28.0
2017-Jan-16 17:00N 21°24' W 076°18'1817.8 070 / 291020.0 5.4 24.6 28.0
2017-Jan-16 16:00N 21°30' W 076°36'2120.6 070 / 291021.1 5.4 26.0 27.0
2017-Jan-16 15:00N 21°42' W 076°54'1312.7 070 / 291021.1 5.4 26.0 27.0
2017-Jan-16 14:00N 21°48' W 077°06'1616.4 060 / 381020.6 5.4 25.0 26.0
2017-Jan-16 13:00N 22°00' W 077°18'2524.5 060 / 351020.1 5.4 24.0 26.0
2017-Jan-16 12:00N 22°18' W 077°36'1817.7 050 / 351019.5 5.4 22.8 27.0
2017-Jan-16 11:00N 22°24' W 077°54'2120.5 050 / 331019.5 5.4 22.8 27.0
2017-Jan-16 10:00N 22°36' W 078°12'1817.7 050 / 251019.5 5.4 22.8 27.0
2017-Jan-16 09:00N 22°42' W 078°30'1817.7 060 / 251019.5 5.4 22.8 27.0
2017-Jan-16 08:00N 22°48' W 078°48'4019.8 070 / 331019.5 5.4 22.8 27.0
2017-Jan-16 06:00N 23°24' W 079°06'1918.8 060 / 361020.9 5.4 22.1 27.0
2017-Jan-16 05:00N 23°42' W 079°12'2121.1 060 / 431021.1 5.4 22.3 27.0
2017-Jan-16 04:00N 24°00' W 079°24'162162.1 060 / 411021.7 5.4 23.0 27.0
2017-Jan-16 03:00N 21°18' W 079°30'198198.1 080 / 351022.2 5.4 23.0 27.0
2017-Jan-16 02:00N 24°36' W 079°36'2524.6 080 / 391022.2 5.4 23.0 27.0
2017-Jan-16 01:00N 25°00' W 079°42'1313.2 070 / 341022.0 5.4 23.0 27.0
2017-Jan-16 00:00N 25°12' W 079°48'1330.4 070 / 391022.0 29.0
2017-Jan-15 23:34N 25°25' W 079°52'1716.6
2017-Jan-15 22:34N 25°40' W 079°60'1110.7
2017-Jan-15 21:31N 25°46' W 080°10'0 0.0
2017-Jan-15 20:31N 25°46' W 080°10'510.5
2017-Jan-15 20:00N 25°42' W 080°06'511.5 090 / 101025.0 5.4 24.0
2017-Jan-15 19:31N 25°46' W 080°10'0 0.0
2017-Jan-15 18:31N 25°46' W 080°10'0 0.0
2017-Jan-15 17:31N 25°46' W 080°10'0 0.0
2017-Jan-15 16:31N 25°46' W 080°10'510.5
2017-Jan-15 16:00N 25°42' W 080°06'511.5 1025.0 5.4 23.0
2017-Jan-15 15:31N 25°46' W 080°10'0 0.0
2017-Jan-15 14:31N 25°46' W 080°10'0 0.0
2017-Jan-15 13:31N 25°46' W 080°10'510.5
2017-Jan-15 13:00N 25°42' W 080°06'5 9.5 070 / 101024.0 5.4 24.0
2017-Jan-15 12:25N 25°46' W 080°10'0 0.0
2017-Jan-15 11:31N 25°46' W 080°10'0 0.0
2017-Jan-15 10:31N 25°46' W 080°10'1 1.4
2017-Jan-15 09:33N 25°47' W 080°11'8 7.6
2017-Jan-15 08:33N 25°47' W 080°03'1413.7
2017-Jan-15 07:33N 25°53' W 079°49'1717.1
2017-Jan-15 06:33N 26°04' W 079°34'1017.0
2017-Jan-15 06:00N 26°06' W 079°24'1023.2 080 / 181025.0 5.4 22.6 26.0
2017-Jan-15 05:33N 26°15' W 079°19'1221.6
2017-Jan-15 05:00N 26°18' W 079°06'1717.2 050 / 191026.1 5.4 23.0 26.0
2017-Jan-15 04:00N 26°12' W 078°48'4019.8 070 / 221026.4 5.4 23.0 26.0
2017-Jan-15 02:00N 26°00' W 078°06'1717.3 060 / 211026.4 5.4 22.0 26.0
2017-Jan-15 01:00N 25°54' W 077°48'2424.2 040 / 221025.9 5.4 22.0 26.0
2017-Jan-15 00:00N 25°36' W 077°30'1918.8 060 / 211025.0 5.4 29.0
2017-Jan-14 23:00N 25°18' W 077°24'13 1.9 060 / 211025.0 5.4 29.0
2017-Jan-14 16:00N 25°06' W 077°18'6 1.5 070 / 101025.0 5.4 29.0
2017-Jan-14 12:00N 25°00' W 077°18'1313.2 070 / 101025.0 29.0
2017-Jan-14 11:00N 25°12' W 077°24'29832983.5 060 / 371025.0 29.0
2017-Jan-14 10:00N 25°24' W 022°24'29842984.0 060 / 371029.0 29.0
2017-Jan-14 09:00N 25°36' W 077°30'1616.2 060 / 301026.5 5.4 21.1 26.0
2017-Jan-14 08:00N 25°48' W 077°42'8 8.1 030 / 301026.5 5.4 21.1 26.0
2017-Jan-14 07:00N 25°54' W 077°48'1717.3 030 / 291026.8 5.4 22.0 26.0
2017-Jan-14 06:00N 26°00' W 078°06'1212.3 040 / 281027.3 5.4 22.0 26.0
2017-Jan-14 05:00N 26°06' W 078°18'5 5.4 050 / 251027.7 5.4 22.5 26.0
2017-Jan-14 04:00N 26°06' W 078°12'8 8.1 070 / 211028.7 5.4 22.5 26.0
2017-Jan-14 03:00N 26°12' W 078°06'1110.8 050 / 281028.7 5.4 22.5 26.0
2017-Jan-14 02:00N 26°12' W 078°18'5 5.4 050 / 231028.7 5.4 23.1 26.0
2017-Jan-14 01:00N 26°12' W 078°24'1110.8 050 / 231028.4 5.4 23.1 26.0
2017-Jan-14 00:00N 26°12' W 078°36'7070.2 040 / 211026.9 5.4 23.1 27.0
2017-Jan-13 23:00N 26°18' W 079°54'4343.0 060 / 211026.9 5.4 23.1 27.0
2017-Jan-13 22:00N 26°18' W 079°06'1922.3 060 / 161026.9 5.4 23.1 27.0
2017-Jan-13 21:09N 26°14' W 079°26'319.1
2017-Jan-13 21:00N 26°12' W 079°24'920.3 070 / 241026.9 5.4 23.1 27.0
2017-Jan-13 20:33N 26°07' W 079°32'712.9
2017-Jan-13 20:00N 26°00' W 079°30'716.8 090 / 241026.9 5.4 23.1 27.0
2017-Jan-13 19:33N 25°54' W 079°34'1221.8
2017-Jan-13 19:00N 25°42' W 079°30'1 3.3 090 / 221027.1 5.4 22.9 27.0
2017-Jan-13 18:33N 25°43' W 079°30'916.0
2017-Jan-13 18:00N 25°36' W 079°24'1313.2 080 / 221027.3 5.4 22.4 27.0
2017-Jan-13 17:00N 25°24' W 079°18'1918.8 080 / 241027.8 5.4 25.0 27.0
2017-Jan-13 16:00N 25°06' W 079°24'1616.2 080 / 251028.0 5.4 25.0 27.0
2017-Jan-13 15:00N 24°54' W 079°36'2121.0 100 / 351027.7 5.4 25.0 27.0
2017-Jan-13 14:00N 24°36' W 079°48'1212.5 090 / 251027.3 5.4 24.5 27.0
2017-Jan-13 13:00N 24°30' W 080°00'1212.5 080 / 231026.0 5.4 24.0 27.0
2017-Jan-13 12:00N 24°24' W 080°12'1110.9 080 / 231023.0 5.4 23.0 27.0
2017-Jan-13 11:00N 24°24' W 080°24'1212.5 080 / 231023.0 5.4 23.0 27.0
2017-Jan-13 10:00N 24°18' W 080°36'1212.5 080 / 231023.0 5.4 23.0 27.0
2017-Jan-13 09:00N 24°12' W 080°48'8 8.1 090 / 261023.0 5.4 23.0 27.0
2017-Jan-13 08:00N 24°06' W 080°54'1616.3 090 / 201023.0 5.4 23.0 27.0
2017-Jan-13 07:00N 23°54' W 081°06'8 8.1 110 / 251024.0 5.4 23.8 27.0
2017-Jan-13 06:00N 24°00' W 081°00'1111.0 080 / 181024.2 5.4 24.8 27.0
2017-Jan-13 05:00N 24°00' W 080°48'17 8.7 080 / 201024.6 5.4 24.5 27.0
2017-Jan-13 03:00N 24°06' W 080°30'1212.5 100 / 71025.2 5.4 24.0 27.0
2017-Jan-13 02:00N 24°12' W 080°18'1212.5 070 / 201025.2 5.4 24.0 27.0
2017-Jan-13 01:00N 24°18' W 080°06'1717.5 080 / 261025.2 5.4 24.0 27.0
2017-Jan-13 00:00N 24°12' W 080°24'2020.3 060 / 181023.0 24.0 29.0
2017-Jan-12 23:00N 24°00' W 080°06'5656.2 080 / 211023.0 24.0 29.0
2017-Jan-12 22:00N 23°48' W 081°06'1817.5 060 / 211023.0 24.0 29.0
2017-Jan-12 21:00N 23°42' W 081°24'2020.4 060 / 211023.0 24.0 29.0
2017-Jan-12 20:00N 23°30' W 081°42'4020.2 080 / 221023.210.8 24.0 27.0
2017-Jan-12 18:00N 23°18' W 082°24'2322.8 100 / 221023.1 5.4 24.2 27.0
2017-Jan-12 17:00N 23°24' W 082°48'1817.6 100 / 271023.710.8 23.5 27.0
2017-Jan-12 16:00N 23°18' W 083°06'2322.9 130 / 261024.1 5.4 24.0 27.0
2017-Jan-12 15:00N 23°12' W 083°30'1817.6 130 / 261024.1 5.4 24.0 27.0
2017-Jan-12 14:00N 23°06' W 083°48'2020.5 120 / 211023.3 5.4 24.0 27.0
2017-Jan-12 13:00N 22°54' W 084°06'2020.5 120 / 201022.4 5.4 23.0 27.0
2017-Jan-12 12:00N 22°42' W 084°24'2020.5 090 / 211021.0 29.0
2017-Jan-12 11:00N 22°30' W 084°42'2120.5 120 / 211021.0 29.0
2017-Jan-12 10:00N 22°18' W 085°00'1616.4 090 / 221020.5 5.4 23.6 28.0
2017-Jan-12 09:00N 22°06' W 085°12'2524.6 090 / 221020.5 5.4 23.6 28.0
2017-Jan-12 08:00N 21°48' W 085°30'1616.4 090 / 221020.5 5.4 23.6 28.0
2017-Jan-12 07:00N 21°36' W 085°42'1616.4 070 / 211020.7 5.4 24.0 28.0
2017-Jan-12 06:00N 21°24' W 085°54'1616.4 070 / 151021.1 5.4 24.5 28.0
2017-Jan-12 05:00N 21°12' W 086°06'1616.4 080 / 231020.9 5.4 24.5 28.0
2017-Jan-12 04:00N 21°00' W 086°18'3514.4 080 / 211020.9 5.4 25.0 28.0
2017-Jan-12 01:33N 20°42' W 086°50'1312.3
2017-Jan-12 00:28N 20°31' W 086°57'0 0.0
2017-Jan-11 23:31N 20°31' W 086°57'0 0.0
2017-Jan-11 22:31N 20°31' W 086°57'0 0.0
2017-Jan-11 21:31N 20°31' W 086°57'0 0.0
2017-Jan-11 20:31N 20°31' W 086°57'5921131.5
2017-Jan-11 20:00N 25°48' W 077°54'5921240.9 080 / 151020.010.8 25.0 30.0
2017-Jan-11 19:31N 20°31' W 086°57'0 0.0
2017-Jan-11 18:31N 20°31' W 086°57'0 0.0
2017-Jan-11 17:31N 20°31' W 086°57'0 0.0
2017-Jan-11 16:28N 20°31' W 086°57'613.1
2017-Jan-11 16:00N 20°36' W 086°54'613.0 080 / 141021.3 5.4 24.0 27.0
2017-Jan-11 15:31N 20°31' W 086°57'0 0.0
2017-Jan-11 14:31N 20°31' W 086°57'0 0.0
2017-Jan-11 13:31N 20°31' W 086°57'611.8
2017-Jan-11 13:00N 20°36' W 086°54'614.2 060 / 121021.3 5.4 24.0 27.0
2017-Jan-11 12:33N 20°31' W 086°57'7 7.1
2017-Jan-11 11:33N 20°37' W 086°55'814.2
2017-Jan-11 11:00N 20°42' W 086°48'1312.7 060 / 191021.3 5.4 24.0 27.0
2017-Jan-11 10:00N 20°48' W 086°36'1312.7 090 / 191021.3 5.4 24.0 27.0
2017-Jan-11 09:00N 20°54' W 086°24'1616.4 090 / 121021.3 5.4 24.0 27.0
2017-Jan-11 08:00N 21°06' W 086°12'8 8.2 070 / 201021.3 5.4 24.0 27.0
2017-Jan-11 07:00N 21°12' W 086°06'1616.4 090 / 201021.9 5.4 23.8 27.0
2017-Jan-11 06:00N 21°24' W 085°54'1313.2 080 / 291021.8 5.4 23.8 27.0
2017-Jan-11 05:00N 21°36' W 085°48'2120.6 090 / 211022.2 5.4 23.8 27.0
2017-Jan-11 04:00N 21°48' W 085°30'8 8.2 070 / 231023.0 5.4 23.0 27.0
2017-Jan-11 03:00N 21°54' W 085°24'1616.4 100 / 231023.4 5.4 23.0 27.0
2017-Jan-11 02:00N 22°06' W 085°12'1616.4 080 / 221023.8 5.4 23.0 27.0
2017-Jan-11 01:00N 22°18' W 085°00'8 8.2 100 / 191023.8 5.4 22.0 27.0
2017-Jan-11 00:00N 22°24' W 084°54'1616.3 100 / 151023.8 5.4 23.6 27.0
2017-Jan-10 23:00N 22°36' W 084°42'1817.7 100 / 151023.8 5.4 23.6 27.0
2017-Jan-10 22:00N 22°42' W 084°24'1312.6 100 / 211023.8 5.4 23.6 27.0
2017-Jan-10 21:00N 22°48' W 084°12'2512.6 070 / 211023.8 5.4 23.6 27.0
2017-Jan-10 19:00N 23°00' W 083°48'1817.6 100 / 171023.8 5.4 23.6 27.0
2017-Jan-10 18:00N 23°06' W 083°30'2814.1 110 / 151024.0 5.4 23.3 27.0
2017-Jan-10 16:00N 23°12' W 083°00'1312.6 120 / 211026.8 5.4 24.0 27.0
2017-Jan-10 15:00N 23°18' W 082°48'2814.1 090 / 131026.8 5.4 22.0 27.0
2017-Jan-10 13:00N 23°24' W 082°18'1817.6 070 / 241026.5 5.4 22.0 27.0
2017-Jan-10 12:00N 23°30' W 082°00'1716.5 110 / 171026.5 5.4 21.7 27.0
2017-Jan-10 11:00N 23°30' W 081°42'1312.5 110 / 171026.5 5.4 21.7 27.0
2017-Jan-10 10:00N 23°36' W 081°30'1817.5 080 / 171026.5 5.4 21.7 27.0
2017-Jan-10 09:00N 23°42' W 081°12'1312.5 080 / 141026.5 5.4 21.7 27.0
2017-Jan-10 08:00N 23°48' W 081°00'1616.3 080 / 141026.5 5.4 21.7 27.0
2017-Jan-10 07:00N 24°00' W 080°48'1717.5 070 / 221027.3 5.4 22.3 27.0
2017-Jan-10 06:00N 24°06' W 080°30'3216.2 070 / 201027.8 5.4 22.0 27.0
2017-Jan-10 04:00N 24°30' W 080°06'1212.5 070 / 191030.0 5.4 22.0 27.0
2017-Jan-10 03:00N 24°36' W 079°54'1818.0 070 / 271030.0 5.4 21.0 27.0
2017-Jan-10 02:00N 24°54' W 079°54'1313.2 060 / 281029.9 5.4 21.0 27.0
2017-Jan-10 01:00N 25°06' W 079°48'1419.2 060 / 271029.7 5.4 21.0 27.0
2017-Jan-10 00:16N 25°20' W 079°50'2 8.5
2017-Jan-10 00:00N 25°18' W 079°48'1329.1 060 / 361029.0 10.0 29.0
2017-Jan-09 23:33N 25°29' W 079°54'711.6
2017-Jan-09 23:00N 25°36' W 079°54'1022.0 050 / 411029.0 10.0 29.0
2017-Jan-09 22:33N 25°42' W 080°02'8 7.8
2017-Jan-09 21:31N 25°46' W 080°10'0 0.0
2017-Jan-09 20:31N 25°46' W 080°10'0 0.0
2017-Jan-09 19:31N 25°46' W 080°10'0 0.0
2017-Jan-09 18:31N 25°46' W 080°10'0 0.0
2017-Jan-09 17:31N 25°46' W 080°10'0 0.0
2017-Jan-09 16:31N 25°46' W 080°10'610.5
2017-Jan-09 16:00N 25°42' W 080°06'611.8 050 / 251032.0 5.4 18.0 27.0
2017-Jan-09 15:31N 25°46' W 080°10'  
Track history (hours):
 
Tides and Currents Weather Stations Pressure Air Temp Water Temp Dewpoint Dewpoint Depression Visibility Wind Speed Wind Dir Waves Ship Positions

Norwegian Pearl

Last reported at 2017-Jan-19 15:00 UTC. Time now 2017-Jan-19 21:21 UTC.
Position N 24°30' W 081°48'.

Type: Ship. MMSI: 309653000.

Wind from 070 at 2 knots

Barometer 1018.0 mb
Air temperature 23.0 ° C
Visibility: greater than 10.8 NM

Date/timePositionNaut miles runAvg speedWind from/ knotsBaromVisibWave heightAir tempDewpointWater temp
2017-Jan-19 15:00N 24°30' W 081°48'0 0.0 070 / 21018.010.8 23.0
2017-Jan-19 13:00N 24°30' W 081°48'13 4.4 1018.010.8 23.0
2017-Jan-19 10:00N 24°18' W 081°54'1616.2 110 / 101017.8 5.4 23.7 27.0
2017-Jan-19 09:00N 24°06' W 082°06'2020.4 080 / 101017.8 5.4 23.7 27.0
2017-Jan-19 08:00N 23°54' W 082°24'1616.3 090 / 101017.8 5.4 23.7 27.0
2017-Jan-19 07:00N 23°42' W 082°36'1817.5 100 / 101018.2 5.4 24.9 27.0
2017-Jan-19 06:00N 23°36' W 082°54'2020.4 110 / 121018.4 5.4 24.3 27.0
2017-Jan-19 05:00N 23°24' W 083°12'2020.4 100 / 141018.8 5.4 24.5 27.0
2017-Jan-19 04:00N 23°12' W 083°30'1312.6 100 / 171019.1 5.4 25.0 27.0
2017-Jan-19 03:00N 23°06' W 083°42'2020.5 100 / 151019.1 5.4 25.0 27.0
2017-Jan-19 02:00N 22°54' W 084°00'1616.3 070 / 161018.7 5.4 25.0 27.0
2017-Jan-19 01:00N 22°42' W 084°12'2020.5 050 / 161018.7 5.4 25.0 27.0
2017-Jan-19 00:00N 22°30' W 084°30'1616.3 010 / 101017.7 5.4 25.4 28.0
2017-Jan-18 23:00N 22°18' W 084°42'1616.4 350 / 41017.7 5.4 25.4 28.0
2017-Jan-18 22:00N 22°06' W 084°54'1918.8 100 / 81017.7 5.4 25.4 28.0
2017-Jan-18 21:00N 21°48' W 085°00'1918.8 100 / 211017.7 5.4 25.4 28.0
2017-Jan-18 20:00N 21°30' W 084°54'1817.8 070 / 161017.7 5.4 25.4 28.0
2017-Jan-18 19:00N 21°24' W 084°36'2323.1 130 / 131018.5 5.4 27.2 28.0
2017-Jan-18 18:00N 21°18' W 084°12'2120.6 100 / 151019.3 5.4 27.4 28.0
2017-Jan-18 17:00N 21°06' W 083°54'2525.4 100 / 181020.2 5.4 26.4 28.0
2017-Jan-18 16:00N 20°54' W 083°30'1817.9 100 / 181020.5 5.4 27.0 27.0
2017-Jan-18 15:00N 20°48' W 083°12'2120.7 090 / 201020.2 5.4 27.0 27.0
2017-Jan-18 14:00N 20°36' W 082°54'1817.9 080 / 231019.5 5.4 25.0 27.0
2017-Jan-18 13:00N 20°30' W 082°36'2120.7 090 / 231018.8 5.4 25.0 27.0
2017-Jan-18 12:00N 20°18' W 082°18'1817.9 080 / 211018.1 5.4 24.9 28.0
2017-Jan-18 11:00N 20°12' W 082°00'2625.5 090 / 181018.1 5.4 24.9 28.0
2017-Jan-18 10:00N 20°00' W 081°36'1818.0 070 / 181018.1 5.4 24.9 28.0
2017-Jan-18 09:00N 19°54' W 081°18'2625.6 070 / 181018.1 5.4 24.9 28.0
2017-Jan-18 08:00N 19°42' W 080°54'2625.6 050 / 191018.0 5.4 24.9 28.0
2017-Jan-18 07:00N 19°30' W 080°30'2625.6 050 / 151018.2 5.4 25.1 28.0
2017-Jan-18 06:00N 19°18' W 080°06'2322.7 050 / 211018.4 5.4 25.2 28.0
2017-Jan-18 05:00N 19°18' W 079°42'2323.4 080 / 131018.8 5.4 25.5 28.0
2017-Jan-18 04:00N 19°12' W 079°18'2322.7 070 / 151019.5 5.4 25.0 28.0
2017-Jan-18 03:00N 19°12' W 078°54'2120.8 080 / 191019.5 5.4 25.0 28.0
2017-Jan-18 02:00N 19°00' W 078°36'2322.7 080 / 161019.5 5.4 25.0 28.0
2017-Jan-18 01:00N 19°00' W 078°12'2323.5 080 / 161019.0 5.4 25.0 28.0
2017-Jan-18 00:00N 18°54' W 077°48'1716.5 090 / 231019.0 5.4 26.0 27.0
2017-Jan-17 23:00N 18°42' W 077°36'2120.9 080 / 231019.0 5.4 26.0 27.0
2017-Jan-17 22:00N 18°30' W 077°18'13 2.6 080 / 181019.0 5.4 26.0 27.0
2017-Jan-17 17:00N 18°24' W 077°06'0 0.0 090 / 141019.0 5.4 26.0 27.0
2017-Jan-17 15:00N 18°24' W 077°06'0 0.0 120 / 81019.0 5.4 26.0 27.0
2017-Jan-17 14:00N 18°24' W 077°06'18 6.0 080 / 31019.8 5.4 26.0 27.0
2017-Jan-17 11:00N 18°30' W 076°48'1716.5 080 / 201016.8 5.4 26.0 27.0
2017-Jan-17 10:00N 18°42' W 076°36'1818.1 070 / 291016.8 5.4 26.0 27.0
2017-Jan-17 09:00N 18°48' W 076°18'2120.8 070 / 291016.8 5.4 26.0 27.0
2017-Jan-17 08:00N 19°00' W 076°00'2120.8 070 / 291016.8 5.4 26.0 27.0
2017-Jan-17 07:00N 19°12' W 075°42'2323.4 060 / 291017.0 5.4 26.5 27.0
2017-Jan-17 06:00N 19°18' W 075°18'3819.2 060 / 201018.0 5.4 26.5 27.0
2017-Jan-17 04:00N 19°36' W 074°42'2120.8 050 / 321020.0 5.4 25.0 27.0
2017-Jan-17 03:00N 19°48' W 074°24'1818.0 050 / 321020.0 5.4 25.0 27.0
2017-Jan-17 02:00N 19°54' W 074°06'1918.9 040 / 271019.9 5.4 25.0 27.0
2017-Jan-17 01:00N 20°12' W 074°00'1616.5 070 / 381019.4 5.4 25.0 27.0
2017-Jan-17 00:00N 20°24' W 074°12'2120.7 050 / 291018.1 5.4 25.0 28.0
2017-Jan-16 23:00N 20°36' W 074°30'3819.1 060 / 291018.1 5.4 25.0 28.0
2017-Jan-16 21:00N 20°54' W 075°06'1312.7 070 / 291018.1 5.4 25.0 28.0
2017-Jan-16 20:00N 21°00' W 075°18'4321.6 070 / 291018.1 5.4 24.9 28.0
2017-Jan-16 18:00N 21°18' W 076°00'1817.8 080 / 241019.4 5.4 24.8 28.0
2017-Jan-16 17:00N 21°24' W 076°18'1817.8 070 / 291020.0 5.4 24.6 28.0
2017-Jan-16 16:00N 21°30' W 076°36'2120.6 070 / 291021.1 5.4 26.0 27.0
2017-Jan-16 15:00N 21°42' W 076°54'1312.7 070 / 291021.1 5.4 26.0 27.0
2017-Jan-16 14:00N 21°48' W 077°06'1616.4 060 / 381020.6 5.4 25.0 26.0
2017-Jan-16 13:00N 22°00' W 077°18'2524.5 060 / 351020.1 5.4 24.0 26.0
2017-Jan-16 12:00N 22°18' W 077°36'1817.7 050 / 351019.5 5.4 22.8 27.0
2017-Jan-16 11:00N 22°24' W 077°54'2120.5 050 / 331019.5 5.4 22.8 27.0
2017-Jan-16 10:00N 22°36' W 078°12'1817.7 050 / 251019.5 5.4 22.8 27.0
2017-Jan-16 09:00N 22°42' W 078°30'1817.7 060 / 251019.5 5.4 22.8 27.0
2017-Jan-16 08:00N 22°48' W 078°48'4019.8 070 / 331019.5 5.4 22.8 27.0
2017-Jan-16 06:00N 23°24' W 079°06'1918.8 060 / 361020.9 5.4 22.1 27.0
2017-Jan-16 05:00N 23°42' W 079°12'2121.1 060 / 431021.1 5.4 22.3 27.0
2017-Jan-16 04:00N 24°00' W 079°24'162162.1 060 / 411021.7 5.4 23.0 27.0
2017-Jan-16 03:00N 21°18' W 079°30'198198.1 080 / 351022.2 5.4 23.0 27.0
2017-Jan-16 02:00N 24°36' W 079°36'2524.6 080 / 391022.2 5.4 23.0 27.0
2017-Jan-16 01:00N 25°00' W 079°42'1313.2 070 / 341022.0 5.4 23.0 27.0
2017-Jan-16 00:00N 25°12' W 079°48'1330.4 070 / 391022.0 29.0
2017-Jan-15 23:34N 25°25' W 079°52'1716.6
2017-Jan-15 22:34N 25°40' W 079°60'1110.7
2017-Jan-15 21:31N 25°46' W 080°10'0 0.0
2017-Jan-15 20:31N 25°46' W 080°10'510.5
2017-Jan-15 20:00N 25°42' W 080°06'511.5 090 / 101025.0 5.4 24.0
2017-Jan-15 19:31N 25°46' W 080°10'0 0.0
2017-Jan-15 18:31N 25°46' W 080°10'0 0.0
2017-Jan-15 17:31N 25°46' W 080°10'0 0.0
2017-Jan-15 16:31N 25°46' W 080°10'510.5
2017-Jan-15 16:00N 25°42' W 080°06'511.5 1025.0 5.4 23.0
2017-Jan-15 15:31N 25°46' W 080°10'0 0.0
2017-Jan-15 14:31N 25°46' W 080°10'0 0.0
2017-Jan-15 13:31N 25°46' W 080°10'510.5
2017-Jan-15 13:00N 25°42' W 080°06'5 9.5 070 / 101024.0 5.4 24.0
2017-Jan-15 12:25N 25°46' W 080°10'0 0.0
2017-Jan-15 11:31N 25°46' W 080°10'0 0.0
2017-Jan-15 10:31N 25°46' W 080°10'1 1.4
2017-Jan-15 09:33N 25°47' W 080°11'8 7.6
2017-Jan-15 08:33N 25°47' W 080°03'1413.7
2017-Jan-15 07:33N 25°53' W 079°49'1717.1
2017-Jan-15 06:33N 26°04' W 079°34'1017.0
2017-Jan-15 06:00N 26°06' W 079°24'1023.2 080 / 181025.0 5.4 22.6 26.0
2017-Jan-15 05:33N 26°15' W 079°19'1221.6
2017-Jan-15 05:00N 26°18' W 079°06'1717.2 050 / 191026.1 5.4 23.0 26.0
2017-Jan-15 04:00N 26°12' W 078°48'4019.8 070 / 221026.4 5.4 23.0 26.0
2017-Jan-15 02:00N 26°00' W 078°06'1717.3 060 / 211026.4 5.4 22.0 26.0
2017-Jan-15 01:00N 25°54' W 077°48'2424.2 040 / 221025.9 5.4 22.0 26.0
2017-Jan-15 00:00N 25°36' W 077°30'1918.8 060 / 211025.0 5.4 29.0
2017-Jan-14 23:00N 25°18' W 077°24'13 1.9 060 / 211025.0 5.4 29.0
2017-Jan-14 16:00N 25°06' W 077°18'6 1.5 070 / 101025.0 5.4 29.0
2017-Jan-14 12:00N 25°00' W 077°18'1313.2 070 / 101025.0 29.0
2017-Jan-14 11:00N 25°12' W 077°24'29832983.5 060 / 371025.0 29.0
2017-Jan-14 10:00N 25°24' W 022°24'29842984.0 060 / 371029.0 29.0
2017-Jan-14 09:00N 25°36' W 077°30'1616.2 060 / 301026.5 5.4 21.1 26.0
2017-Jan-14 08:00N 25°48' W 077°42'8 8.1 030 / 301026.5 5.4 21.1 26.0
2017-Jan-14 07:00N 25°54' W 077°48'1717.3 030 / 291026.8 5.4 22.0 26.0
2017-Jan-14 06:00N 26°00' W 078°06'1212.3 040 / 281027.3 5.4 22.0 26.0
2017-Jan-14 05:00N 26°06' W 078°18'5 5.4 050 / 251027.7 5.4 22.5 26.0
2017-Jan-14 04:00N 26°06' W 078°12'8 8.1 070 / 211028.7 5.4 22.5 26.0
2017-Jan-14 03:00N 26°12' W 078°06'1110.8 050 / 281028.7 5.4 22.5 26.0
2017-Jan-14 02:00N 26°12' W 078°18'5 5.4 050 / 231028.7 5.4 23.1 26.0
2017-Jan-14 01:00N 26°12' W 078°24'1110.8 050 / 231028.4 5.4 23.1 26.0
2017-Jan-14 00:00N 26°12' W 078°36'7070.2 040 / 211026.9 5.4 23.1 27.0
2017-Jan-13 23:00N 26°18' W 079°54'4343.0 060 / 211026.9 5.4 23.1 27.0
2017-Jan-13 22:00N 26°18' W 079°06'1922.3 060 / 161026.9 5.4 23.1 27.0
2017-Jan-13 21:09N 26°14' W 079°26'319.1
2017-Jan-13 21:00N 26°12' W 079°24'920.3 070 / 241026.9 5.4 23.1 27.0
2017-Jan-13 20:33N 26°07' W 079°32'712.9
2017-Jan-13 20:00N 26°00' W 079°30'716.8 090 / 241026.9 5.4 23.1 27.0
2017-Jan-13 19:33N 25°54' W 079°34'1221.8
2017-Jan-13 19:00N 25°42' W 079°30'1 3.3 090 / 221027.1 5.4 22.9 27.0
2017-Jan-13 18:33N 25°43' W 079°30'916.0
2017-Jan-13 18:00N 25°36' W 079°24'1313.2 080 / 221027.3 5.4 22.4 27.0
2017-Jan-13 17:00N 25°24' W 079°18'1918.8 080 / 241027.8 5.4 25.0 27.0
2017-Jan-13 16:00N 25°06' W 079°24'1616.2 080 / 251028.0 5.4 25.0 27.0
2017-Jan-13 15:00N 24°54' W 079°36'2121.0 100 / 351027.7 5.4 25.0 27.0
2017-Jan-13 14:00N 24°36' W 079°48'1212.5 090 / 251027.3 5.4 24.5 27.0
2017-Jan-13 13:00N 24°30' W 080°00'1212.5 080 / 231026.0 5.4 24.0 27.0
2017-Jan-13 12:00N 24°24' W 080°12'1110.9 080 / 231023.0 5.4 23.0 27.0
2017-Jan-13 11:00N 24°24' W 080°24'1212.5 080 / 231023.0 5.4 23.0 27.0
2017-Jan-13 10:00N 24°18' W 080°36'1212.5 080 / 231023.0 5.4 23.0 27.0
2017-Jan-13 09:00N 24°12' W 080°48'8 8.1 090 / 261023.0 5.4 23.0 27.0
2017-Jan-13 08:00N 24°06' W 080°54'1616.3 090 / 201023.0 5.4 23.0 27.0
2017-Jan-13 07:00N 23°54' W 081°06'8 8.1 110 / 251024.0 5.4 23.8 27.0
2017-Jan-13 06:00N 24°00' W 081°00'1111.0 080 / 181024.2 5.4 24.8 27.0
2017-Jan-13 05:00N 24°00' W 080°48'17 8.7 080 / 201024.6 5.4 24.5 27.0
2017-Jan-13 03:00N 24°06' W 080°30'1212.5 100 / 71025.2 5.4 24.0 27.0
2017-Jan-13 02:00N 24°12' W 080°18'1212.5 070 / 201025.2 5.4 24.0 27.0
2017-Jan-13 01:00N 24°18' W 080°06'1717.5 080 / 261025.2 5.4 24.0 27.0
2017-Jan-13 00:00N 24°12' W 080°24'2020.3 060 / 181023.0 24.0 29.0
2017-Jan-12 23:00N 24°00' W 080°06'5656.2 080 / 211023.0 24.0 29.0
2017-Jan-12 22:00N 23°48' W 081°06'1817.5 060 / 211023.0 24.0 29.0
2017-Jan-12 21:00N 23°42' W 081°24'2020.4 060 / 211023.0 24.0 29.0
2017-Jan-12 20:00N 23°30' W 081°42'4020.2 080 / 221023.210.8 24.0 27.0
2017-Jan-12 18:00N 23°18' W 082°24'2322.8 100 / 221023.1 5.4 24.2 27.0
2017-Jan-12 17:00N 23°24' W 082°48'1817.6 100 / 271023.710.8 23.5 27.0
2017-Jan-12 16:00N 23°18' W 083°06'2322.9 130 / 261024.1 5.4 24.0 27.0
2017-Jan-12 15:00N 23°12' W 083°30'1817.6 130 / 261024.1 5.4 24.0 27.0
2017-Jan-12 14:00N 23°06' W 083°48'2020.5 120 / 211023.3 5.4 24.0 27.0
2017-Jan-12 13:00N 22°54' W 084°06'2020.5 120 / 201022.4 5.4 23.0 27.0
2017-Jan-12 12:00N 22°42' W 084°24'2020.5 090 / 211021.0 29.0
2017-Jan-12 11:00N 22°30' W 084°42'2120.5 120 / 211021.0 29.0
2017-Jan-12 10:00N 22°18' W 085°00'1616.4 090 / 221020.5 5.4 23.6 28.0
2017-Jan-12 09:00N 22°06' W 085°12'2524.6 090 / 221020.5 5.4 23.6 28.0
2017-Jan-12 08:00N 21°48' W 085°30'1616.4 090 / 221020.5 5.4 23.6 28.0
2017-Jan-12 07:00N 21°36' W 085°42'1616.4 070 / 211020.7 5.4 24.0 28.0
2017-Jan-12 06:00N 21°24' W 085°54'1616.4 070 / 151021.1 5.4 24.5 28.0
2017-Jan-12 05:00N 21°12' W 086°06'1616.4 080 / 231020.9 5.4 24.5 28.0
2017-Jan-12 04:00N 21°00' W 086°18'3514.4 080 / 211020.9 5.4 25.0 28.0
2017-Jan-12 01:33N 20°42' W 086°50'1312.3
2017-Jan-12 00:28N 20°31' W 086°57'0 0.0
2017-Jan-11 23:31N 20°31' W 086°57'0 0.0
2017-Jan-11 22:31N 20°31' W 086°57'0 0.0
2017-Jan-11 21:31N 20°31' W 086°57'0 0.0
2017-Jan-11 20:31N 20°31' W 086°57'5921131.5
2017-Jan-11 20:00N 25°48' W 077°54'5921240.9 080 / 151020.010.8 25.0 30.0
2017-Jan-11 19:31N 20°31' W 086°57'0 0.0
2017-Jan-11 18:31N 20°31' W 086°57'0 0.0
2017-Jan-11 17:31N 20°31' W 086°57'0 0.0
2017-Jan-11 16:28N 20°31' W 086°57'613.1
2017-Jan-11 16:00N 20°36' W 086°54'613.0 080 / 141021.3 5.4 24.0 27.0
2017-Jan-11 15:31N 20°31' W 086°57'0 0.0
2017-Jan-11 14:31N 20°31' W 086°57'0 0.0
2017-Jan-11 13:31N 20°31' W 086°57'611.8
2017-Jan-11 13:00N 20°36' W 086°54'614.2 060 / 121021.3 5.4 24.0 27.0
2017-Jan-11 12:33N 20°31' W 086°57'7 7.1
2017-Jan-11 11:33N 20°37' W 086°55'814.2
2017-Jan-11 11:00N 20°42' W 086°48'1312.7 060 / 191021.3 5.4 24.0 27.0
2017-Jan-11 10:00N 20°48' W 086°36'1312.7 090 / 191021.3 5.4 24.0 27.0
2017-Jan-11 09:00N 20°54' W 086°24'1616.4 090 / 121021.3 5.4 24.0 27.0
2017-Jan-11 08:00N 21°06' W 086°12'8 8.2 070 / 201021.3 5.4 24.0 27.0
2017-Jan-11 07:00N 21°12' W 086°06'1616.4 090 / 201021.9 5.4 23.8 27.0
2017-Jan-11 06:00N 21°24' W 085°54'1313.2 080 / 291021.8 5.4 23.8 27.0
2017-Jan-11 05:00N 21°36' W 085°48'2120.6 090 / 211022.2 5.4 23.8 27.0
2017-Jan-11 04:00N 21°48' W 085°30'8 8.2 070 / 231023.0 5.4 23.0 27.0
2017-Jan-11 03:00N 21°54' W 085°24'1616.4 100 / 231023.4 5.4 23.0 27.0
2017-Jan-11 02:00N 22°06' W 085°12'1616.4 080 / 221023.8 5.4 23.0 27.0
2017-Jan-11 01:00N 22°18' W 085°00'8 8.2 100 / 191023.8 5.4 22.0 27.0
2017-Jan-11 00:00N 22°24' W 084°54'1616.3 100 / 151023.8 5.4 23.6 27.0
2017-Jan-10 23:00N 22°36' W 084°42'1817.7 100 / 151023.8 5.4 23.6 27.0
2017-Jan-10 22:00N 22°42' W 084°24'1312.6 100 / 211023.8 5.4 23.6 27.0
2017-Jan-10 21:00N 22°48' W 084°12'2512.6 070 / 211023.8 5.4 23.6 27.0
2017-Jan-10 19:00N 23°00' W 083°48'1817.6 100 / 171023.8 5.4 23.6 27.0
2017-Jan-10 18:00N 23°06' W 083°30'2814.1 110 / 151024.0 5.4 23.3 27.0
2017-Jan-10 16:00N 23°12' W 083°00'1312.6 120 / 211026.8 5.4 24.0 27.0
2017-Jan-10 15:00N 23°18' W 082°48'2814.1 090 / 131026.8 5.4 22.0 27.0
2017-Jan-10 13:00N 23°24' W 082°18'1817.6 070 / 241026.5 5.4 22.0 27.0
2017-Jan-10 12:00N 23°30' W 082°00'1716.5 110 / 171026.5 5.4 21.7 27.0
2017-Jan-10 11:00N 23°30' W 081°42'1312.5 110 / 171026.5 5.4 21.7 27.0
2017-Jan-10 10:00N 23°36' W 081°30'1817.5 080 / 171026.5 5.4 21.7 27.0
2017-Jan-10 09:00N 23°42' W 081°12'1312.5 080 / 141026.5 5.4 21.7 27.0
2017-Jan-10 08:00N 23°48' W 081°00'1616.3 080 / 141026.5 5.4 21.7 27.0
2017-Jan-10 07:00N 24°00' W 080°48'1717.5 070 / 221027.3 5.4 22.3 27.0
2017-Jan-10 06:00N 24°06' W 080°30'3216.2 070 / 201027.8 5.4 22.0 27.0
2017-Jan-10 04:00N 24°30' W 080°06'1212.5 070 / 191030.0 5.4 22.0 27.0
2017-Jan-10 03:00N 24°36' W 079°54'1818.0 070 / 271030.0 5.4 21.0 27.0
2017-Jan-10 02:00N 24°54' W 079°54'1313.2 060 / 281029.9 5.4 21.0 27.0
2017-Jan-10 01:00N 25°06' W 079°48'1419.2 060 / 271029.7 5.4 21.0 27.0
2017-Jan-10 00:16N 25°20' W 079°50'2 8.5
2017-Jan-10 00:00N 25°18' W 079°48'1329.1 060 / 361029.0 10.0 29.0
2017-Jan-09 23:33N 25°29' W 079°54'711.6
2017-Jan-09 23:00N 25°36' W 079°54'1022.0 050 / 411029.0 10.0 29.0
2017-Jan-09 22:33N 25°42' W 080°02'8 7.8
2017-Jan-09 21:31N 25°46' W 080°10'0 0.0
2017-Jan-09 20:31N 25°46' W 080°10'0 0.0
2017-Jan-09 19:31N 25°46' W 080°10'0 0.0
2017-Jan-09 18:31N 25°46' W 080°10'0 0.0
2017-Jan-09 17:31N 25°46' W 080°10'0 0.0
2017-Jan-09 16:31N 25°46' W 080°10'610.5
2017-Jan-09 16:00N 25°42' W 080°06'611.8 050 / 251032.0 5.4 18.0 27.0
2017-Jan-09 15:31N 25°46' W 080°10'  

Dump ship's entire track history